sensor_id;sensor_type;location;lat;lon;timestamp;pressure;altitude;pressure_sealevel;temperature;humidity
59600;BME280;61855;55.030;73.326;2022-09-14T00:01:40;101326.06;;;9.11;nan
59600;BME280;61855;55.030;73.326;2022-09-14T00:04:18;101331.59;;;9.09;nan
59600;BME280;61855;55.030;73.326;2022-09-14T00:06:44;101344.34;;;9.07;nan
59600;BME280;61855;55.030;73.326;2022-09-14T00:09:21;101336.97;;;9.09;nan
59600;BME280;61855;55.030;73.326;2022-09-14T00:11:47;101326.78;;;9.13;nan
59600;BME280;61855;55.030;73.326;2022-09-14T00:14:17;101332.19;;;9.13;nan
59600;BME280;61855;55.030;73.326;2022-09-14T00:16:46;101331.75;;;9.08;nan
59600;BME280;61855;55.030;73.326;2022-09-14T00:19:16;101336.00;;;9.01;nan
59600;BME280;61855;55.030;73.326;2022-09-14T00:21:55;101332.88;;;8.96;nan
59600;BME280;61855;55.030;73.326;2022-09-14T00:24:26;101336.09;;;8.90;nan
59600;BME280;61855;55.030;73.326;2022-09-14T00:26:54;101332.00;;;8.85;nan
59600;BME280;61855;55.030;73.326;2022-09-14T00:29:20;101332.13;;;8.84;nan
59600;BME280;61855;55.030;73.326;2022-09-14T00:31:47;101324.34;;;8.81;nan
59600;BME280;61855;55.030;73.326;2022-09-14T00:34:13;101329.97;;;8.78;nan
59600;BME280;61855;55.030;73.326;2022-09-14T00:36:41;101329.28;;;8.76;nan
59600;BME280;61855;55.030;73.326;2022-09-14T00:39:07;101333.94;;;8.74;nan
59600;BME280;61855;55.030;73.326;2022-09-14T00:41:39;101331.53;;;8.71;nan
59600;BME280;61855;55.030;73.326;2022-09-14T00:46:46;101337.19;;;8.68;nan
59600;BME280;61855;55.030;73.326;2022-09-14T00:49:14;101339.88;;;8.68;nan
59600;BME280;61855;55.030;73.326;2022-09-14T00:52:00;101344.28;;;8.69;nan
59600;BME280;61855;55.030;73.326;2022-09-14T00:54:43;101339.03;;;8.67;nan
59600;BME280;61855;55.030;73.326;2022-09-14T00:57:11;101338.75;;;8.70;nan
59600;BME280;61855;55.030;73.326;2022-09-14T00:59:48;101338.63;;;8.72;nan
59600;BME280;61855;55.030;73.326;2022-09-14T01:02:16;101340.31;;;8.73;nan
59600;BME280;61855;55.030;73.326;2022-09-14T01:04:43;101354.34;;;8.76;nan
59600;BME280;61855;55.030;73.326;2022-09-14T01:09:57;101343.88;;;8.83;nan
59600;BME280;61855;55.030;73.326;2022-09-14T01:17:54;101350.84;;;8.95;nan
59600;BME280;61855;55.030;73.326;2022-09-14T01:20:44;101350.00;;;8.95;nan
59600;BME280;61855;55.030;73.326;2022-09-14T01:23:25;101347.88;;;8.98;nan
59600;BME280;61855;55.030;73.326;2022-09-14T01:28:39;101344.63;;;9.04;nan
59600;BME280;61855;55.030;73.326;2022-09-14T01:31:14;101345.06;;;9.09;nan
59600;BME280;61855;55.030;73.326;2022-09-14T01:33:45;101348.19;;;9.14;nan
59600;BME280;61855;55.030;73.326;2022-09-14T01:36:13;101351.44;;;9.18;nan
59600;BME280;61855;55.030;73.326;2022-09-14T01:38:44;101351.31;;;9.19;nan
59600;BME280;61855;55.030;73.326;2022-09-14T01:41:12;101349.31;;;9.21;nan
59600;BME280;61855;55.030;73.326;2022-09-14T01:43:43;101351.59;;;9.26;nan
59600;BME280;61855;55.030;73.326;2022-09-14T01:46:12;101352.19;;;9.29;nan
59600;BME280;61855;55.030;73.326;2022-09-14T01:49:00;101349.88;;;9.34;nan
59600;BME280;61855;55.030;73.326;2022-09-14T01:51:30;101347.63;;;9.39;nan
59600;BME280;61855;55.030;73.326;2022-09-14T01:54:00;101351.75;;;9.43;nan
59600;BME280;61855;55.030;73.326;2022-09-14T01:56:38;101351.16;;;9.49;nan
59600;BME280;61855;55.030;73.326;2022-09-14T02:04:35;101361.78;;;9.61;nan
59600;BME280;61855;55.030;73.326;2022-09-14T02:07:11;101358.66;;;9.65;nan
59600;BME280;61855;55.030;73.326;2022-09-14T02:09:37;101353.84;;;9.69;nan
59600;BME280;61855;55.030;73.326;2022-09-14T02:12:04;101357.69;;;9.76;nan
59600;BME280;61855;55.030;73.326;2022-09-14T02:14:35;101352.88;;;9.79;nan
59600;BME280;61855;55.030;73.326;2022-09-14T02:17:01;101352.44;;;9.84;nan
59600;BME280;61855;55.030;73.326;2022-09-14T02:19:28;101360.06;;;9.88;nan
59600;BME280;61855;55.030;73.326;2022-09-14T02:21:56;101362.19;;;9.94;nan
59600;BME280;61855;55.030;73.326;2022-09-14T02:24:23;101368.69;;;10.01;nan
59600;BME280;61855;55.030;73.326;2022-09-14T02:26:49;101361.03;;;10.06;nan
59600;BME280;61855;55.030;73.326;2022-09-14T02:29:16;101359.47;;;10.13;nan
59600;BME280;61855;55.030;73.326;2022-09-14T02:51:01;101351.78;;;10.82;nan
59600;BME280;61855;55.030;73.326;2022-09-14T02:53:36;101360.69;;;10.93;nan
59600;BME280;61855;55.030;73.326;2022-09-14T02:56:05;101362.63;;;11.00;nan
59600;BME280;61855;55.030;73.326;2022-09-14T02:58:41;101364.59;;;11.08;nan
59600;BME280;61855;55.030;73.326;2022-09-14T03:01:07;101360.28;;;11.15;nan
59600;BME280;61855;55.030;73.326;2022-09-14T03:03:34;101366.75;;;11.22;nan
59600;BME280;61855;55.030;73.326;2022-09-14T03:06:05;101367.00;;;11.28;nan
59600;BME280;61855;55.030;73.326;2022-09-14T03:08:31;101365.50;;;11.34;nan
59600;BME280;61855;55.030;73.326;2022-09-14T03:10:57;101359.50;;;11.40;nan
59600;BME280;61855;55.030;73.326;2022-09-14T03:13:28;101366.16;;;11.45;nan
59600;BME280;61855;55.030;73.326;2022-09-14T03:15:54;101367.22;;;11.52;nan
59600;BME280;61855;55.030;73.326;2022-09-14T03:18:26;101373.56;;;11.61;nan
59600;BME280;61855;55.030;73.326;2022-09-14T03:20:52;101368.25;;;11.69;nan
59600;BME280;61855;55.030;73.326;2022-09-14T03:23:18;101371.00;;;11.77;nan
59600;BME280;61855;55.030;73.326;2022-09-14T03:25:43;101372.72;;;11.78;nan
59600;BME280;61855;55.030;73.326;2022-09-14T03:28:10;101375.81;;;11.83;nan
59600;BME280;61855;55.030;73.326;2022-09-14T03:30:36;101376.19;;;11.88;nan
59600;BME280;61855;55.030;73.326;2022-09-14T03:33:06;101369.28;;;11.94;nan
59600;BME280;61855;55.030;73.326;2022-09-14T03:35:32;101376.91;;;11.98;nan
59600;BME280;61855;55.030;73.326;2022-09-14T03:37:59;101379.16;;;12.03;nan
59600;BME280;61855;55.030;73.326;2022-09-14T03:40:27;101372.28;;;12.08;nan
59600;BME280;61855;55.030;73.326;2022-09-14T03:43:06;101380.44;;;12.16;nan
59600;BME280;61855;55.030;73.326;2022-09-14T03:45:38;101378.63;;;12.25;nan
59600;BME280;61855;55.030;73.326;2022-09-14T03:48:14;101385.66;;;12.36;nan
59600;BME280;61855;55.030;73.326;2022-09-14T03:50:40;101376.56;;;12.45;nan
59600;BME280;61855;55.030;73.326;2022-09-14T03:53:11;101378.97;;;12.56;nan
59600;BME280;61855;55.030;73.326;2022-09-14T03:55:38;101377.19;;;12.64;nan
59600;BME280;61855;55.030;73.326;2022-09-14T03:58:04;101381.44;;;12.67;nan
59600;BME280;61855;55.030;73.326;2022-09-14T04:00:30;101376.53;;;12.70;nan
59600;BME280;61855;55.030;73.326;2022-09-14T04:02:58;101376.72;;;12.77;nan
59600;BME280;61855;55.030;73.326;2022-09-14T04:05:34;101373.19;;;12.84;nan
59600;BME280;61855;55.030;73.326;2022-09-14T04:08:06;101382.03;;;12.95;nan
59600;BME280;61855;55.030;73.326;2022-09-14T04:10:40;101375.63;;;13.04;nan
59600;BME280;61855;55.030;73.326;2022-09-14T04:13:06;101375.84;;;13.10;nan
59600;BME280;61855;55.030;73.326;2022-09-14T04:15:42;101375.84;;;13.10;nan
59600;BME280;61855;55.030;73.326;2022-09-14T04:18:10;101372.63;;;13.15;nan
59600;BME280;61855;55.030;73.326;2022-09-14T04:20:35;101377.09;;;13.24;nan
59600;BME280;61855;55.030;73.326;2022-09-14T04:23:02;101381.34;;;13.34;nan
59600;BME280;61855;55.030;73.326;2022-09-14T04:25:38;101375.25;;;13.40;nan
59600;BME280;61855;55.030;73.326;2022-09-14T04:28:03;101372.88;;;13.45;nan
59600;BME280;61855;55.030;73.326;2022-09-14T04:30:39;101376.47;;;13.54;nan
59600;BME280;61855;55.030;73.326;2022-09-14T04:33:04;101374.25;;;13.57;nan
59600;BME280;61855;55.030;73.326;2022-09-14T04:35:35;101380.19;;;13.61;nan
59600;BME280;61855;55.030;73.326;2022-09-14T04:38:02;101376.13;;;13.65;nan
59600;BME280;61855;55.030;73.326;2022-09-14T04:40:29;101376.13;;;13.65;nan
59600;BME280;61855;55.030;73.326;2022-09-14T04:42:55;101372.41;;;13.66;nan
59600;BME280;61855;55.030;73.326;2022-09-14T04:45:27;101370.34;;;13.68;nan
59600;BME280;61855;55.030;73.326;2022-09-14T04:47:52;101371.22;;;13.69;nan
59600;BME280;61855;55.030;73.326;2022-09-14T04:50:19;101370.72;;;13.73;nan
59600;BME280;61855;55.030;73.326;2022-09-14T04:52:44;101378.66;;;13.75;nan
59600;BME280;61855;55.030;73.326;2022-09-14T04:55:15;101373.09;;;13.76;nan
59600;BME280;61855;55.030;73.326;2022-09-14T04:57:46;101377.31;;;13.79;nan
59600;BME280;61855;55.030;73.326;2022-09-14T05:00:12;101368.81;;;13.82;nan
59600;BME280;61855;55.030;73.326;2022-09-14T05:02:50;101366.28;;;13.88;nan
59600;BME280;61855;55.030;73.326;2022-09-14T05:05:16;101361.84;;;13.95;nan
59600;BME280;61855;55.030;73.326;2022-09-14T05:07:42;101366.28;;;14.04;nan
59600;BME280;61855;55.030;73.326;2022-09-14T05:10:09;101359.31;;;14.10;nan
59600;BME280;61855;55.030;73.326;2022-09-14T05:12:35;101357.63;;;14.09;nan
59600;BME280;61855;55.030;73.326;2022-09-14T05:15:01;101358.28;;;14.03;nan
59600;BME280;61855;55.030;73.326;2022-09-14T05:17:27;101357.66;;;13.93;nan
59600;BME280;61855;55.030;73.326;2022-09-14T05:20:03;101354.59;;;13.80;nan
59600;BME280;61855;55.030;73.326;2022-09-14T05:22:29;101353.22;;;13.68;nan
59600;BME280;61855;55.030;73.326;2022-09-14T05:25:01;101350.34;;;13.53;nan
59600;BME280;61855;55.030;73.326;2022-09-14T05:27:36;101356.09;;;13.42;nan
59600;BME280;61855;55.030;73.326;2022-09-14T05:30:13;101351.19;;;13.37;nan
59600;BME280;61855;55.030;73.326;2022-09-14T05:32:39;101350.00;;;13.40;nan
59600;BME280;61855;55.030;73.326;2022-09-14T05:35:04;101347.78;;;13.43;nan
59600;BME280;61855;55.030;73.326;2022-09-14T05:37:33;101338.97;;;13.41;nan
59600;BME280;61855;55.030;73.326;2022-09-14T05:39:58;101343.22;;;13.44;nan
59600;BME280;61855;55.030;73.326;2022-09-14T05:42:35;101341.69;;;13.41;nan
59600;BME280;61855;55.030;73.326;2022-09-14T05:45:01;101343.75;;;13.47;nan
59600;BME280;61855;55.030;73.326;2022-09-14T05:47:30;101333.41;;;13.51;nan
59600;BME280;61855;55.030;73.326;2022-09-14T05:49:56;101333.91;;;13.54;nan
59600;BME280;61855;55.030;73.326;2022-09-14T05:52:32;101341.69;;;13.57;nan
59600;BME280;61855;55.030;73.326;2022-09-14T05:54:58;101331.56;;;13.60;nan
59600;BME280;61855;55.030;73.326;2022-09-14T05:57:24;101326.28;;;13.58;nan
59600;BME280;61855;55.030;73.326;2022-09-14T05:59:50;101331.72;;;13.66;nan
59600;BME280;61855;55.030;73.326;2022-09-14T06:02:21;101325.63;;;13.64;nan
59600;BME280;61855;55.030;73.326;2022-09-14T06:04:51;101324.25;;;13.68;nan
59600;BME280;61855;55.030;73.326;2022-09-14T06:07:17;101332.22;;;13.70;nan
59600;BME280;61855;55.030;73.326;2022-09-14T06:09:43;101331.38;;;13.69;nan
59600;BME280;61855;55.030;73.326;2022-09-14T06:12:08;101329.50;;;13.78;nan
59600;BME280;61855;55.030;73.326;2022-09-14T06:14:36;101327.81;;;13.85;nan
59600;BME280;61855;55.030;73.326;2022-09-14T06:17:02;101326.94;;;13.92;nan
59600;BME280;61855;55.030;73.326;2022-09-14T06:19:30;101324.72;;;13.96;nan
59600;BME280;61855;55.030;73.326;2022-09-14T06:22:05;101325.09;;;13.93;nan
59600;BME280;61855;55.030;73.326;2022-09-14T06:24:31;101324.09;;;13.86;nan
59600;BME280;61855;55.030;73.326;2022-09-14T06:26:57;101323.03;;;13.87;nan
59600;BME280;61855;55.030;73.326;2022-09-14T06:29:23;101316.44;;;13.89;nan
59600;BME280;61855;55.030;73.326;2022-09-14T06:31:49;101319.28;;;13.96;nan
59600;BME280;61855;55.030;73.326;2022-09-14T06:34:17;101318.63;;;14.02;nan
59600;BME280;61855;55.030;73.326;2022-09-14T06:36:43;101328.44;;;14.03;nan
59600;BME280;61855;55.030;73.326;2022-09-14T06:39:09;101314.22;;;14.01;nan
59600;BME280;61855;55.030;73.326;2022-09-14T06:41:35;101316.59;;;14.04;nan
59600;BME280;61855;55.030;73.326;2022-09-14T06:44:04;101318.97;;;14.07;nan
59600;BME280;61855;55.030;73.326;2022-09-14T06:46:33;101310.28;;;14.11;nan
59600;BME280;61855;55.030;73.326;2022-09-14T06:49:04;101308.72;;;14.17;nan
59600;BME280;61855;55.030;73.326;2022-09-14T06:51:31;101311.09;;;14.20;nan
59600;BME280;61855;55.030;73.326;2022-09-14T06:54:02;101305.19;;;14.33;nan
59600;BME280;61855;55.030;73.326;2022-09-14T06:56:35;101293.94;;;14.44;nan
59600;BME280;61855;55.030;73.326;2022-09-14T06:59:01;101305.63;;;14.44;nan
59600;BME280;61855;55.030;73.326;2022-09-14T07:01:27;101294.03;;;14.58;nan
59600;BME280;61855;55.030;73.326;2022-09-14T07:03:55;101304.38;;;14.63;nan
59600;BME280;61855;55.030;73.326;2022-09-14T07:06:24;101302.81;;;14.68;nan
59600;BME280;61855;55.030;73.326;2022-09-14T07:08:51;101301.41;;;14.80;nan
59600;BME280;61855;55.030;73.326;2022-09-14T07:11:27;101297.34;;;14.76;nan
59600;BME280;61855;55.030;73.326;2022-09-14T07:13:54;101295.44;;;14.85;nan
59600;BME280;61855;55.030;73.326;2022-09-14T07:16:23;101301.88;;;14.84;nan
59600;BME280;61855;55.030;73.326;2022-09-14T07:18:53;101291.00;;;14.84;nan
59600;BME280;61855;55.030;73.326;2022-09-14T07:21:30;101300.03;;;14.84;nan
59600;BME280;61855;55.030;73.326;2022-09-14T07:23:56;101290.09;;;15.00;nan
59600;BME280;61855;55.030;73.326;2022-09-14T07:26:31;101279.75;;;15.18;nan
59600;BME280;61855;55.030;73.326;2022-09-14T07:31:59;101277.22;;;15.39;nan
59600;BME280;61855;55.030;73.326;2022-09-14T07:34:26;101268.69;;;15.42;nan
59600;BME280;61855;55.030;73.326;2022-09-14T07:36:53;101264.94;;;15.43;nan
59600;BME280;61855;55.030;73.326;2022-09-14T07:39:19;101269.13;;;15.53;nan
59600;BME280;61855;55.030;73.326;2022-09-14T07:41:45;101269.84;;;15.70;nan
59600;BME280;61855;55.030;73.326;2022-09-14T07:44:14;101266.09;;;15.86;nan
59600;BME280;61855;55.030;73.326;2022-09-14T07:46:41;101270.03;;;15.83;nan
59600;BME280;61855;55.030;73.326;2022-09-14T07:49:08;101264.50;;;15.77;nan
59600;BME280;61855;55.030;73.326;2022-09-14T07:51:34;101267.88;;;15.64;nan
59600;BME280;61855;55.030;73.326;2022-09-14T07:54:01;101270.00;;;15.54;nan
59600;BME280;61855;55.030;73.326;2022-09-14T07:56:29;101269.03;;;15.47;nan
59600;BME280;61855;55.030;73.326;2022-09-14T07:58:57;101265.88;;;15.58;nan
59600;BME280;61855;55.030;73.326;2022-09-14T08:01:28;101271.66;;;15.55;nan
59600;BME280;61855;55.030;73.326;2022-09-14T08:04:02;101263.91;;;15.67;nan
59600;BME280;61855;55.030;73.326;2022-09-14T08:06:43;101266.66;;;15.81;nan
59600;BME280;61855;55.030;73.326;2022-09-14T08:09:20;101254.13;;;15.95;nan
59600;BME280;61855;55.030;73.326;2022-09-14T08:11:46;101254.88;;;16.03;nan
59600;BME280;61855;55.030;73.326;2022-09-14T08:14:19;101254.13;;;15.95;nan
59600;BME280;61855;55.030;73.326;2022-09-14T08:16:45;101258.50;;;15.96;nan
59600;BME280;61855;55.030;73.326;2022-09-14T08:19:15;101241.34;;;15.95;nan
59600;BME280;61855;55.030;73.326;2022-09-14T08:21:42;101247.72;;;16.02;nan
59600;BME280;61855;55.030;73.326;2022-09-14T08:24:10;101248.56;;;16.17;nan
59600;BME280;61855;55.030;73.326;2022-09-14T08:26:41;101249.88;;;16.36;nan
59600;BME280;61855;55.030;73.326;2022-09-14T08:29:13;101241.34;;;16.54;nan
59600;BME280;61855;55.030;73.326;2022-09-14T08:31:42;101239.41;;;16.69;nan
59600;BME280;61855;55.030;73.326;2022-09-14T08:34:13;101237.53;;;16.69;nan
59600;BME280;61855;55.030;73.326;2022-09-14T08:36:39;101244.31;;;16.73;nan
59600;BME280;61855;55.030;73.326;2022-09-14T08:39:07;101235.94;;;16.75;nan
59600;BME280;61855;55.030;73.326;2022-09-14T08:44:03;101234.78;;;16.84;nan
59600;BME280;61855;55.030;73.326;2022-09-14T08:49:11;101225.44;;;16.93;nan
59600;BME280;61855;55.030;73.326;2022-09-14T08:51:38;101228.56;;;16.90;nan
59600;BME280;61855;55.030;73.326;2022-09-14T08:54:04;101223.81;;;16.99;nan
59600;BME280;61855;55.030;73.326;2022-09-14T08:56:39;101225.00;;;17.11;nan
59600;BME280;61855;55.030;73.326;2022-09-14T09:12:05;101225.53;;;17.21;nan
59600;BME280;61855;55.030;73.326;2022-09-14T09:15:00;101222.00;;;17.27;nan
59600;BME280;61855;55.030;73.326;2022-09-14T09:17:32;101228.50;;;17.26;nan
59600;BME280;61855;55.030;73.326;2022-09-14T09:20:05;101218.44;;;17.26;nan
59600;BME280;61855;55.030;73.326;2022-09-14T09:22:39;101222.38;;;17.24;nan
59600;BME280;61855;55.030;73.326;2022-09-14T09:25:18;101218.31;;;17.34;nan
59600;BME280;61855;55.030;73.326;2022-09-14T09:27:48;101209.84;;;17.29;nan
59600;BME280;61855;55.030;73.326;2022-09-14T09:30:21;101198.31;;;17.06;nan
59600;BME280;61855;55.030;73.326;2022-09-14T09:32:47;101217.03;;;17.30;nan
59600;BME280;61855;55.030;73.326;2022-09-14T09:35:36;101206.91;;;17.31;nan
59600;BME280;61855;55.030;73.326;2022-09-14T09:38:14;101209.31;;;17.40;nan
59600;BME280;61855;55.030;73.326;2022-09-14T09:40:44;101212.19;;;17.32;nan
59600;BME280;61855;55.030;73.326;2022-09-14T09:43:11;101208.03;;;17.36;nan
59600;BME280;61855;55.030;73.326;2022-09-14T09:45:51;101213.50;;;17.36;nan
59600;BME280;61855;55.030;73.326;2022-09-14T09:48:37;101210.69;;;17.51;nan
59600;BME280;61855;55.030;73.326;2022-09-14T09:54:02;101207.00;;;17.93;nan
59600;BME280;61855;55.030;73.326;2022-09-14T09:56:28;101197.22;;;18.05;nan
59600;BME280;61855;55.030;73.326;2022-09-14T09:58:55;101209.81;;;17.99;nan
59600;BME280;61855;55.030;73.326;2022-09-14T10:01:25;101206.97;;;17.86;nan
59600;BME280;61855;55.030;73.326;2022-09-14T10:03:59;101207.16;;;17.57;nan
59600;BME280;61855;55.030;73.326;2022-09-14T10:06:25;101210.63;;;17.44;nan
59600;BME280;61855;55.030;73.326;2022-09-14T10:08:51;101206.66;;;17.26;nan
59600;BME280;61855;55.030;73.326;2022-09-14T10:11:35;101211.09;;;17.06;nan
59600;BME280;61855;55.030;73.326;2022-09-14T10:14:18;101208.22;;;16.92;nan
59600;BME280;61855;55.030;73.326;2022-09-14T10:16:44;101197.78;;;16.75;nan
59600;BME280;61855;55.030;73.326;2022-09-14T10:19:20;101202.59;;;16.73;nan
59600;BME280;61855;55.030;73.326;2022-09-14T10:24:32;101212.84;;;16.71;nan
59600;BME280;61855;55.030;73.326;2022-09-14T10:26:59;101206.81;;;16.75;nan
59600;BME280;61855;55.030;73.326;2022-09-14T10:29:42;101207.25;;;16.79;nan
59600;BME280;61855;55.030;73.326;2022-09-14T10:32:20;101207.47;;;16.77;nan
59600;BME280;61855;55.030;73.326;2022-09-14T10:34:48;101208.09;;;16.79;nan
59600;BME280;61855;55.030;73.326;2022-09-14T10:40:00;101201.81;;;16.79;nan
59600;BME280;61855;55.030;73.326;2022-09-14T10:42:36;101208.63;;;16.89;nan
59600;BME280;61855;55.030;73.326;2022-09-14T10:55:30;101209.41;;;17.47;nan
59600;BME280;61855;55.030;73.326;2022-09-14T11:08:31;101208.44;;;16.91;nan
59600;BME280;61855;55.030;73.326;2022-09-14T11:18:36;101221.19;;;16.69;nan
59600;BME280;61855;55.030;73.326;2022-09-14T11:21:15;101212.91;;;16.77;nan
59600;BME280;61855;55.030;73.326;2022-09-14T11:23:51;101215.91;;;16.82;nan
59600;BME280;61855;55.030;73.326;2022-09-14T11:26:31;101224.84;;;16.76;nan
59600;BME280;61855;55.030;73.326;2022-09-14T11:29:06;101219.69;;;16.67;nan
59600;BME280;61855;55.030;73.326;2022-09-14T11:31:40;101218.31;;;16.56;nan
59600;BME280;61855;55.030;73.326;2022-09-14T11:36:43;101226.66;;;16.55;nan
59600;BME280;61855;55.030;73.326;2022-09-14T11:41:46;101219.03;;;16.65;nan
59600;BME280;61855;55.030;73.326;2022-09-14T11:46:51;101220.66;;;17.16;nan
59600;BME280;61855;55.030;73.326;2022-09-14T11:49:25;101217.22;;;18.46;nan
59600;BME280;61855;55.030;73.326;2022-09-14T11:51:58;101218.50;;;19.89;nan
59600;BME280;61855;55.030;73.326;2022-09-14T11:54:25;101213.16;;;20.20;nan
59600;BME280;61855;55.030;73.326;2022-09-14T11:57:00;101205.84;;;19.82;nan
59600;BME280;61855;55.030;73.326;2022-09-14T12:10:17;101200.44;;;17.53;nan
59600;BME280;61855;55.030;73.326;2022-09-14T12:17:56;101212.75;;;16.64;nan
59600;BME280;61855;55.030;73.326;2022-09-14T12:23:22;101213.09;;;16.25;nan
59600;BME280;61855;55.030;73.326;2022-09-14T12:28:47;101216.19;;;15.93;nan
59600;BME280;61855;55.030;73.326;2022-09-14T12:39:18;101228.03;;;15.48;nan
59600;BME280;61855;55.030;73.326;2022-09-14T12:44:31;101227.97;;;15.34;nan
59600;BME280;61855;55.030;73.326;2022-09-14T12:47:02;101231.91;;;15.31;nan
59600;BME280;61855;55.030;73.326;2022-09-14T12:49:48;101233.84;;;15.23;nan
59600;BME280;61855;55.030;73.326;2022-09-14T12:52:31;101235.59;;;15.16;nan
59600;BME280;61855;55.030;73.326;2022-09-14T13:00:44;101235.88;;;14.98;nan
59600;BME280;61855;55.030;73.326;2022-09-14T13:03:35;101244.13;;;15.13;nan
59600;BME280;61855;55.030;73.326;2022-09-14T13:06:10;101245.50;;;15.09;nan
59600;BME280;61855;55.030;73.326;2022-09-14T13:08:48;101241.47;;;15.05;nan
59600;BME280;61855;55.030;73.326;2022-09-14T13:11:21;101254.25;;;14.96;nan
59600;BME280;61855;55.030;73.326;2022-09-14T13:13:49;101244.28;;;14.88;nan
59600;BME280;61855;55.030;73.326;2022-09-14T13:16:18;101254.84;;;14.83;nan
59600;BME280;61855;55.030;73.326;2022-09-14T13:18:58;101255.06;;;14.74;nan
59600;BME280;61855;55.030;73.326;2022-09-14T13:21:25;101250.84;;;14.71;nan
59600;BME280;61855;55.030;73.326;2022-09-14T13:23:52;101251.22;;;14.68;nan
59600;BME280;61855;55.030;73.326;2022-09-14T13:26:19;101248.84;;;14.65;nan
59600;BME280;61855;55.030;73.326;2022-09-14T13:28:47;101254.63;;;14.62;nan
59600;BME280;61855;55.030;73.326;2022-09-14T13:31:16;101250.22;;;14.61;nan
59600;BME280;61855;55.030;73.326;2022-09-14T13:33:49;101254.31;;;14.57;nan
59600;BME280;61855;55.030;73.326;2022-09-14T13:36:19;101261.63;;;14.57;nan
59600;BME280;61855;55.030;73.326;2022-09-14T13:38:54;101265.03;;;14.51;nan
59600;BME280;61855;55.030;73.326;2022-09-14T13:41:21;101264.38;;;14.49;nan
59600;BME280;61855;55.030;73.326;2022-09-14T13:43:48;101271.00;;;14.46;nan
59600;BME280;61855;55.030;73.326;2022-09-14T13:46:24;101265.25;;;14.41;nan
59600;BME280;61855;55.030;73.326;2022-09-14T13:48:51;101266.63;;;14.37;nan
59600;BME280;61855;55.030;73.326;2022-09-14T13:51:24;101259.88;;;14.33;nan
59600;BME280;61855;55.030;73.326;2022-09-14T13:53:57;101264.59;;;14.31;nan
59600;BME280;61855;55.030;73.326;2022-09-14T13:56:40;101264.94;;;14.28;nan
59600;BME280;61855;55.030;73.326;2022-09-14T13:59:17;101261.72;;;14.24;nan
59600;BME280;61855;55.030;73.326;2022-09-14T14:07:06;101267.88;;;14.18;nan
59600;BME280;61855;55.030;73.326;2022-09-14T14:12:20;101271.44;;;14.11;nan
59600;BME280;61855;55.030;73.326;2022-09-14T14:14:58;101275.69;;;14.05;nan
59600;BME280;61855;55.030;73.326;2022-09-14T14:17:29;101276.88;;;14.03;nan
59600;BME280;61855;55.030;73.326;2022-09-14T14:19:58;101278.25;;;13.99;nan
59600;BME280;61855;55.030;73.326;2022-09-14T14:24:50;101269.97;;;13.92;nan
59600;BME280;61855;55.030;73.326;2022-09-14T14:29:58;101271.69;;;13.85;nan
59600;BME280;61855;55.030;73.326;2022-09-14T14:32:24;101275.72;;;13.81;nan
59600;BME280;61855;55.030;73.326;2022-09-14T14:34:50;101271.69;;;13.77;nan
59600;BME280;61855;55.030;73.326;2022-09-14T14:37:17;101274.56;;;13.76;nan
59600;BME280;61855;55.030;73.326;2022-09-14T14:39:44;101272.38;;;13.71;nan
59600;BME280;61855;55.030;73.326;2022-09-14T14:42:10;101274.41;;;13.69;nan
59600;BME280;61855;55.030;73.326;2022-09-14T14:44:36;101273.91;;;13.66;nan
59600;BME280;61855;55.030;73.326;2022-09-14T14:47:12;101268.31;;;13.59;nan
59600;BME280;61855;55.030;73.326;2022-09-14T14:49:38;101272.56;;;13.53;nan
59600;BME280;61855;55.030;73.326;2022-09-14T14:52:05;101271.03;;;13.51;nan
59600;BME280;61855;55.030;73.326;2022-09-14T14:54:31;101274.25;;;13.46;nan
59600;BME280;61855;55.030;73.326;2022-09-14T14:56:57;101269.69;;;13.39;nan
59600;BME280;61855;55.030;73.326;2022-09-14T14:59:25;101270.50;;;13.31;nan
59600;BME280;61855;55.030;73.326;2022-09-14T15:01:51;101269.84;;;13.29;nan
59600;BME280;61855;55.030;73.326;2022-09-14T15:04:23;101269.69;;;13.23;nan
59600;BME280;61855;55.030;73.326;2022-09-14T15:06:49;101273.53;;;13.12;nan
59600;BME280;61855;55.030;73.326;2022-09-14T15:09:17;101273.84;;;13.01;nan
59600;BME280;61855;55.030;73.326;2022-09-14T15:11:47;101292.13;;;12.99;nan
59600;BME280;61855;55.030;73.326;2022-09-14T15:14:14;101286.53;;;13.01;nan
59600;BME280;61855;55.030;73.326;2022-09-14T15:16:40;101288.75;;;13.05;nan
59600;BME280;61855;55.030;73.326;2022-09-14T15:19:06;101295.03;;;12.98;nan
59600;BME280;61855;55.030;73.326;2022-09-14T15:21:32;101301.44;;;12.97;nan
59600;BME280;61855;55.030;73.326;2022-09-14T15:23:58;101297.03;;;12.96;nan
59600;BME280;61855;55.030;73.326;2022-09-14T15:26:35;101300.09;;;13.01;nan
59600;BME280;61855;55.030;73.326;2022-09-14T15:29:01;101309.06;;;13.01;nan
59600;BME280;61855;55.030;73.326;2022-09-14T15:31:36;101312.97;;;12.99;nan
59600;BME280;61855;55.030;73.326;2022-09-14T15:34:01;101312.63;;;13.02;nan
59600;BME280;61855;55.030;73.326;2022-09-14T15:36:41;101302.97;;;12.99;nan
59600;BME280;61855;55.030;73.326;2022-09-14T15:39:13;101302.97;;;12.99;nan
59600;BME280;61855;55.030;73.326;2022-09-14T15:41:40;101305.00;;;12.97;nan
59600;BME280;61855;55.030;73.326;2022-09-14T15:44:07;101303.66;;;12.93;nan
59600;BME280;61855;55.030;73.326;2022-09-14T15:46:33;101304.66;;;12.92;nan
59600;BME280;61855;55.030;73.326;2022-09-14T15:49:02;101298.88;;;12.87;nan
59600;BME280;61855;55.030;73.326;2022-09-14T15:51:28;101299.19;;;12.84;nan
59600;BME280;61855;55.030;73.326;2022-09-14T15:53:56;101292.59;;;12.78;nan